createdAt,value
2023-03-22T00:02:27.338Z,97.75
2023-03-22T00:04:56.912Z,97.82
2023-03-22T00:07:25.092Z,98.25
2023-03-22T00:09:53.072Z,98.08
2023-03-22T00:12:20.911Z,97.75
2023-03-22T00:14:49.442Z,97.48
2023-03-22T00:17:17.414Z,97.84
2023-03-22T00:19:45.269Z,97.82
2023-03-22T00:22:14.764Z,98.00
2023-03-22T00:24:42.656Z,98.41
2023-03-22T00:27:10.421Z,98.66
2023-03-22T00:29:38.347Z,98.42
2023-03-22T00:32:06.644Z,98.49
2023-03-22T00:34:34.881Z,97.90
2023-03-22T00:37:04.183Z,98.34
2023-03-22T00:39:33.439Z,98.23
2023-03-22T00:42:01.289Z,98.01
2023-03-22T00:44:29.083Z,97.89
2023-03-22T00:46:56.980Z,98.25
2023-03-22T00:49:25.505Z,98.27
2023-03-22T00:51:53.592Z,98.38
2023-03-22T00:54:21.789Z,98.40
2023-03-22T00:56:51.059Z,98.97
2023-03-22T00:59:19.098Z,98.64
2023-03-22T01:01:46.949Z,98.92
2023-03-22T01:04:18.124Z,98.42
2023-03-22T01:06:47.099Z,98.46
2023-03-22T01:09:15.174Z,99.07
2023-03-22T01:11:43.832Z,99.37
2023-03-22T01:14:16.745Z,99.14
2023-03-22T01:16:44.573Z,98.98
2023-03-22T01:19:12.697Z,98.94
2023-03-22T01:21:40.630Z,99.04
2023-03-22T01:24:09.006Z,99.47
2023-03-22T01:26:37.832Z,99.74
2023-03-22T01:29:06.365Z,99.51
2023-03-22T01:31:35.595Z,99.49
2023-03-22T01:34:03.514Z,99.61
2023-03-22T01:36:32.241Z,99.42
2023-03-22T01:39:00.501Z,99.59
2023-03-22T01:41:28.582Z,99.78
2023-03-22T01:44:09.064Z,100.00
2023-03-22T01:46:38.373Z,100.00
2023-03-22T01:49:09.903Z,99.99
2023-03-22T01:51:37.973Z,100.00
2023-03-22T01:54:19.214Z,99.99
2023-03-22T01:56:48.376Z,99.93
2023-03-22T01:59:26.095Z,99.20
2023-03-22T02:02:19.253Z,99.25
2023-03-22T02:04:57.822Z,99.34
2023-03-22T02:07:28.208Z,98.99
2023-03-22T02:09:57.730Z,99.23
2023-03-22T02:12:39.847Z,99.07
2023-03-22T02:15:24.981Z,99.36
2023-03-22T02:18:29.841Z,99.46
2023-03-22T02:21:13.930Z,99.25
2023-03-22T02:24:17.723Z,98.71
2023-03-22T02:27:21.797Z,99.14
2023-03-22T02:29:57.667Z,98.52
2023-03-22T02:32:55.429Z,98.43
2023-03-22T02:35:44.400Z,98.78
2023-03-22T02:38:36.702Z,98.49
2023-03-22T02:41:14.255Z,99.12
2023-03-22T02:43:54.509Z,98.83
2023-03-22T02:46:26.074Z,99.01
2023-03-22T02:49:00.836Z,99.09
2023-03-22T02:51:35.578Z,99.50
2023-03-22T02:54:08.519Z,99.91
2023-03-22T02:56:41.603Z,100.00
2023-03-22T02:59:12.565Z,100.00
2023-03-22T03:01:44.423Z,100.00
2023-03-22T03:04:17.558Z,100.00
2023-03-22T03:06:49.219Z,100.00
2023-03-22T03:09:20.097Z,100.00
2023-03-22T03:11:51.724Z,100.00
2023-03-22T03:14:22.177Z,100.00
2023-03-22T03:17:00.871Z,100.00
2023-03-22T03:19:36.368Z,100.00
2023-03-22T03:22:16.542Z,100.00
2023-03-22T03:24:50.222Z,100.00
2023-03-22T03:27:27.362Z,100.00
2023-03-22T03:30:01.525Z,100.00
2023-03-22T03:32:38.331Z,100.00
2023-03-22T03:35:22.368Z,100.00
2023-03-22T03:37:54.487Z,100.00
2023-03-22T03:40:27.276Z,100.00
2023-03-22T03:43:00.002Z,100.00
2023-03-22T03:45:27.940Z,100.00
2023-03-22T03:48:00.536Z,100.00
2023-03-22T03:50:29.075Z,100.00
2023-03-22T03:52:57.964Z,100.00
2023-03-22T03:55:28.111Z,100.00
2023-03-22T03:57:57.368Z,100.00
2023-03-22T04:00:25.202Z,100.00
2023-03-22T04:03:27.274Z,100.00
2023-03-22T04:06:13.191Z,100.00
2023-03-22T04:08:46.527Z,100.00
2023-03-22T04:11:17.005Z,100.00
2023-03-22T04:13:49.834Z,100.00
2023-03-22T04:16:21.666Z,100.00
2023-03-22T04:18:49.849Z,100.00
2023-03-22T04:21:17.754Z,100.00
2023-03-22T04:23:52.352Z,100.00
2023-03-22T04:26:20.687Z,100.00
2023-03-22T04:29:09.949Z,100.00
2023-03-22T04:31:42.978Z,100.00
2023-03-22T04:34:27.615Z,100.00
2023-03-22T04:37:02.324Z,100.00
2023-03-22T04:40:06.654Z,100.00
2023-03-22T04:42:46.102Z,100.00
2023-03-22T04:45:21.501Z,100.00
2023-03-22T04:47:57.099Z,100.00
2023-03-22T04:50:25.063Z,100.00
2023-03-22T04:52:58.431Z,100.00
2023-03-22T04:55:27.667Z,100.00
2023-03-22T04:57:55.914Z,100.00
2023-03-22T05:00:30.077Z,100.00
2023-03-22T05:02:58.890Z,100.00
2023-03-22T05:05:52.588Z,100.00
2023-03-22T05:08:21.827Z,100.00
2023-03-22T05:10:52.190Z,100.00
2023-03-22T05:13:20.237Z,100.00
2023-03-22T05:15:50.238Z,100.00
2023-03-22T05:18:24.613Z,100.00
2023-03-22T05:20:54.932Z,100.00
2023-03-22T05:23:25.515Z,100.00
2023-03-22T05:25:58.266Z,100.00
2023-03-22T05:28:28.451Z,100.00
2023-03-22T05:31:18.061Z,100.00
2023-03-22T05:33:55.550Z,100.00
2023-03-22T05:36:26.074Z,100.00
2023-03-22T05:39:10.255Z,100.00
2023-03-22T05:41:38.273Z,100.00
2023-03-22T05:44:06.731Z,100.00
2023-03-22T05:46:38.825Z,100.00
2023-03-22T05:49:28.816Z,100.00
2023-03-22T05:51:57.248Z,100.00
2023-03-22T05:54:31.238Z,100.00
2023-03-22T05:56:59.546Z,100.00
2023-03-22T05:59:28.134Z,100.00
2023-03-22T06:01:57.475Z,100.00
2023-03-22T06:04:25.655Z,100.00
2023-03-22T06:06:59.344Z,100.00
2023-03-22T06:09:42.633Z,100.00
2023-03-22T06:12:17.033Z,100.00
2023-03-22T06:14:50.842Z,100.00
2023-03-22T06:17:38.513Z,100.00
2023-03-22T06:20:11.255Z,100.00
2023-03-22T06:22:42.005Z,100.00
2023-03-22T06:25:12.024Z,100.00
2023-03-22T06:27:46.526Z,100.00
2023-03-22T06:30:14.982Z,100.00
2023-03-22T06:33:06.125Z,99.56
2023-03-22T06:35:37.985Z,99.90
2023-03-22T06:38:07.933Z,100.00
2023-03-22T06:40:38.130Z,100.00
2023-03-22T06:43:07.445Z,100.00
2023-03-22T06:45:39.001Z,100.00
2023-03-22T06:48:09.723Z,99.92
2023-03-22T06:50:47.277Z,99.90
2023-03-22T06:53:19.903Z,100.00
2023-03-22T06:55:48.046Z,99.87
2023-03-22T06:58:19.688Z,99.63
2023-03-22T07:00:47.586Z,98.77
2023-03-22T07:03:17.845Z,98.33
2023-03-22T07:06:02.323Z,98.40
2023-03-22T07:08:32.339Z,97.45
2023-03-22T07:11:00.355Z,97.37
2023-03-22T07:13:28.753Z,96.85
2023-03-22T07:16:02.485Z,96.59
2023-03-22T07:18:44.991Z,96.07
2023-03-22T07:21:13.038Z,94.71
2023-03-22T07:23:43.163Z,94.09
2023-03-22T07:26:15.381Z,91.72
2023-03-22T07:28:46.546Z,89.92
2023-03-22T07:31:16.426Z,89.37
2023-03-22T07:34:16.288Z,88.26
2023-03-22T07:36:59.262Z,85.58
2023-03-22T07:39:28.956Z,83.02
2023-03-22T07:41:57.838Z,83.44
2023-03-22T07:44:25.699Z,83.80
2023-03-22T07:47:39.972Z,84.51
2023-03-22T07:50:30.168Z,84.47
2023-03-22T07:53:00.941Z,82.25
2023-03-22T07:55:28.955Z,78.94
2023-03-22T07:57:57.511Z,77.59
2023-03-22T08:00:26.164Z,75.48
2023-03-22T08:03:06.900Z,74.20
2023-03-22T08:05:54.774Z,73.85
2023-03-22T08:08:22.903Z,74.14
2023-03-22T08:10:51.727Z,74.94
2023-03-22T08:13:19.948Z,73.62
2023-03-22T08:15:47.974Z,73.73
2023-03-22T08:18:15.961Z,73.49
2023-03-22T08:20:46.269Z,73.49
2023-03-22T08:23:31.688Z,69.47
2023-03-22T08:26:36.265Z,64.38
2023-03-22T08:29:13.036Z,62.19
2023-03-22T08:31:41.086Z,60.91
2023-03-22T08:34:09.019Z,62.03
2023-03-22T08:36:39.002Z,60.62
2023-03-22T08:39:09.540Z,58.28
2023-03-22T08:41:48.034Z,57.80
2023-03-22T08:44:16.120Z,59.49
2023-03-22T08:46:43.993Z,60.09
2023-03-22T08:49:11.928Z,59.76
2023-03-22T08:51:43.916Z,58.93
2023-03-22T08:54:23.942Z,58.14
2023-03-22T08:56:54.793Z,59.96
2023-03-22T08:59:34.336Z,59.18
2023-03-22T09:02:22.398Z,59.73
2023-03-22T09:04:50.486Z,60.63
2023-03-22T09:07:18.883Z,58.53
2023-03-22T09:09:53.921Z,56.72
2023-03-22T09:12:22.376Z,56.67
2023-03-22T09:14:50.484Z,55.24
2023-03-22T09:17:21.318Z,56.58
2023-03-22T09:19:57.688Z,56.84
2023-03-22T09:22:32.028Z,57.45
2023-03-22T09:25:02.572Z,57.16
2023-03-22T09:27:31.119Z,56.79
2023-03-22T09:29:59.187Z,57.33
2023-03-22T09:32:27.522Z,57.19
2023-03-22T09:35:00.682Z,56.60
2023-03-22T09:37:36.154Z,56.86
2023-03-22T09:40:07.657Z,56.12
2023-03-22T09:42:39.648Z,56.18
2023-03-22T09:45:16.935Z,56.28
2023-03-22T09:47:46.892Z,56.39
2023-03-22T09:50:19.822Z,55.22
2023-03-22T09:52:48.373Z,54.16
2023-03-22T09:55:23.377Z,52.75
2023-03-22T09:58:00.511Z,50.54
2023-03-22T10:00:34.481Z,50.53
2023-03-22T10:03:10.746Z,51.66
2023-03-22T10:05:42.977Z,50.57
2023-03-22T10:08:23.850Z,48.90
2023-03-22T10:10:53.510Z,50.88
2023-03-22T10:13:26.766Z,51.06
2023-03-22T10:15:56.938Z,50.37
2023-03-22T10:18:27.987Z,47.39
2023-03-22T10:21:01.661Z,47.63
2023-03-22T10:23:35.184Z,48.97
2023-03-22T10:26:07.548Z,48.43
2023-03-22T10:28:40.234Z,50.19
2023-03-22T10:31:15.984Z,49.43
2023-03-22T10:33:51.071Z,49.80
2023-03-22T10:36:23.857Z,51.50
2023-03-22T10:38:55.760Z,49.72
2023-03-22T10:41:26.768Z,51.07
2023-03-22T10:43:58.318Z,48.75
2023-03-22T10:46:29.631Z,48.96
2023-03-22T10:48:59.912Z,50.74
2023-03-22T10:51:30.605Z,49.00
2023-03-22T10:54:01.484Z,48.97
2023-03-22T10:56:30.725Z,48.41
2023-03-22T10:58:58.842Z,47.12
2023-03-22T11:01:29.887Z,46.85
2023-03-22T11:04:00.785Z,48.06
2023-03-22T11:06:32.776Z,47.59
2023-03-22T11:09:02.568Z,48.29
2023-03-22T11:11:36.495Z,48.94
2023-03-22T11:14:09.386Z,47.26
2023-03-22T11:16:45.343Z,47.97
2023-03-22T11:19:19.081Z,49.52
2023-03-22T11:21:47.076Z,48.76
2023-03-22T11:24:15.615Z,49.77
2023-03-22T11:27:03.928Z,49.29
2023-03-22T11:29:41.866Z,48.49
2023-03-22T11:32:22.970Z,50.96
2023-03-22T11:35:01.439Z,51.62
2023-03-22T11:37:29.495Z,50.83
2023-03-22T11:40:05.154Z,50.23
2023-03-22T11:42:35.249Z,51.13
2023-03-22T11:45:03.233Z,51.39
2023-03-22T11:47:38.143Z,52.20
2023-03-22T11:50:09.524Z,51.83
2023-03-22T11:52:38.666Z,52.99
2023-03-22T11:55:06.897Z,50.83
2023-03-22T11:57:38.280Z,52.21
2023-03-22T12:00:14.578Z,52.54
2023-03-22T12:02:47.715Z,52.09
2023-03-22T12:05:21.468Z,52.35
2023-03-22T12:07:55.330Z,53.12
2023-03-22T12:10:27.667Z,52.29
2023-03-22T12:13:01.176Z,52.09
2023-03-22T12:15:32.781Z,51.98
2023-03-22T12:18:07.811Z,52.06
2023-03-22T12:20:43.020Z,52.54
2023-03-22T12:23:16.467Z,53.43
2023-03-22T12:25:50.596Z,53.36
2023-03-22T12:28:23.832Z,53.93
2023-03-22T12:30:56.144Z,52.58
2023-03-22T12:33:27.808Z,52.08
2023-03-22T12:35:59.418Z,53.08
2023-03-22T12:38:36.245Z,52.68
2023-03-22T12:41:08.555Z,53.80
2023-03-22T12:43:46.722Z,53.51
2023-03-22T12:46:20.338Z,54.21
2023-03-22T12:48:52.148Z,53.87
2023-03-22T12:51:19.993Z,53.80
2023-03-22T12:53:51.921Z,53.37
2023-03-22T12:56:22.976Z,53.48
2023-03-22T12:58:55.497Z,53.65
2023-03-22T13:01:31.440Z,53.84
2023-03-22T13:03:59.877Z,53.71
2023-03-22T13:06:34.201Z,54.09
2023-03-22T13:09:16.144Z,55.39
2023-03-22T13:11:46.217Z,54.68
2023-03-22T13:14:57.720Z,55.42
2023-03-22T13:17:46.853Z,55.60
2023-03-22T13:20:38.275Z,56.20
2023-03-22T13:23:26.946Z,56.56
2023-03-22T13:26:04.999Z,56.88
2023-03-22T13:28:37.336Z,56.87
2023-03-22T13:31:07.593Z,57.79
2023-03-22T13:33:37.092Z,57.87
2023-03-22T13:36:08.954Z,58.92
2023-03-22T13:38:42.377Z,60.04
2023-03-22T13:41:22.076Z,60.14
2023-03-22T13:43:52.027Z,60.14
2023-03-22T13:46:50.573Z,60.88
2023-03-22T13:49:37.207Z,58.81
2023-03-22T13:52:09.226Z,58.84
2023-03-22T13:54:42.264Z,59.39
2023-03-22T13:57:37.558Z,58.98
2023-03-22T14:00:14.410Z,58.87
2023-03-22T14:02:45.955Z,59.52
2023-03-22T14:05:17.559Z,58.70
2023-03-22T14:07:50.708Z,59.20
2023-03-22T14:10:22.653Z,58.15
2023-03-22T14:12:53.460Z,58.73
2023-03-22T14:15:24.693Z,59.17
2023-03-22T14:17:57.624Z,59.71
2023-03-22T14:20:27.724Z,58.73
